Time;durP1;ratioP1;P1;durP2;ratioP2;P2;SDS_P1;SDS_P2;PMS_P1;PMS_P2;Temp;Humidity;BMP_temperature;BMP_pressure;BME280_temperature;BME280_humidity;BME280_pressure;Samples;Min_cycle;Max_cycle;Signal;HPM_P1;HPM_P2
2022/08/15 00:01:16;;;;;;;6.35;2.50;;;22.80;60.40;;;;;;5029313;28;20114;-52
2022/08/15 00:03:49;;;;;;;7.10;2.28;;;22.80;60.70;;;;;;5029834;28;20045;-56
2022/08/15 00:06:41;;;;;;;6.13;2.55;;;22.80;60.90;;;;;;5030127;28;20383;-55
2022/08/15 00:09:13;;;;;;;4.22;2.08;;;22.80;62.00;;;;;;5029616;28;20060;-55
2022/08/15 00:11:42;;;;;;;4.85;2.13;;;22.70;61.60;;;;;;5029962;28;20081;-52
2022/08/15 00:14:27;;;;;;;4.80;2.58;;;22.70;61.40;;;;;;5012241;28;20041;-55
2022/08/15 00:16:59;;;;;;;29.00;3.92;;;22.60;62.30;;;;;;5013059;28;20050;-53
2022/08/15 00:19:29;;;;;;;4.78;2.08;;;22.50;62.00;;;;;;5029544;28;20447;-54
2022/08/15 00:22:02;;;;;;;6.90;2.33;;;22.60;62.20;;;;;;5029897;28;20496;-56
2022/08/15 00:24:30;;;;;;;5.15;1.90;;;22.50;62.50;;;;;;5028326;28;20052;-56
2022/08/15 00:26:59;;;;;;;5.53;1.73;;;22.50;62.50;;;;;;5029836;28;20083;-54
2022/08/15 00:29:28;;;;;;;5.65;2.30;;;22.40;63.00;;;;;;5029258;28;20042;-54
2022/08/15 00:32:08;;;;;;;4.97;2.50;;;22.30;63.90;;;;;;5013772;28;20057;-54
2022/08/15 00:34:54;;;;;;;6.25;2.83;;;22.20;63.80;;;;;;5029460;28;20042;-55
2022/08/15 00:37:22;;;;;;;5.03;2.15;;;22.20;63.70;;;;;;5029487;28;20053;-55
2022/08/15 00:39:49;;;;;;;4.10;2.17;;;22.20;64.40;;;;;;5028352;28;20042;-55
2022/08/15 00:42:25;;;;;;;4.70;2.23;;;22.20;64.00;;;;;;5029534;28;20049;-54
2022/08/15 00:44:57;;;;;;;3.63;2.50;;;22.20;64.10;;;;;;5029275;28;20048;-56
2022/08/15 00:47:34;;;;;;;3.35;2.25;;;22.20;64.40;;;;;;5023630;28;20130;-51
2022/08/15 00:50:07;;;;;;;4.00;1.98;;;22.10;64.50;;;;;;5019080;28;20049;-54
2022/08/15 00:52:53;;;;;;;4.88;2.20;;;22.00;64.30;;;;;;5029550;28;20140;-54
2022/08/15 00:55:21;;;;;;;3.90;2.10;;;22.00;64.00;;;;;;5027505;28;20328;-52
2022/08/15 00:57:52;;;;;;;2.47;1.30;;;21.90;64.10;;;;;;5029326;28;20048;-55
2022/08/15 01:00:30;;;;;;;3.03;1.90;;;21.90;64.20;;;;;;5018781;28;20580;-54
2022/08/15 01:03:02;;;;;;;;;;;21.80;64.40;;;;;;5029914;28;20099;-54
2022/08/15 01:05:29;;;;;;;1.92;1.42;;;21.80;66.10;;;;;;5028627;28;19931;-53
2022/08/15 01:07:56;;;;;;;2.38;1.73;;;21.80;64.30;;;;;;5027909;28;20052;-53
2022/08/15 01:10:23;;;;;;;3.40;1.70;;;21.80;64.70;;;;;;5028954;28;20073;-53
2022/08/15 01:12:51;;;;;;;3.53;1.67;;;21.80;64.90;;;;;;5028843;28;20091;-53
2022/08/15 01:15:19;;;;;;;4.50;1.50;;;21.80;65.00;;;;;;5011041;28;20045;-53
2022/08/15 01:17:54;;;;;;;3.53;1.42;;;21.80;65.10;;;;;;5015553;28;20033;-54
2022/08/15 01:20:24;;;;;;;2.67;1.77;;;21.70;65.10;;;;;;5028345;28;20512;-54
2022/08/15 01:23:03;;;;;;;3.38;1.65;;;21.80;65.40;;;;;;5028771;28;20119;-53
2022/08/15 01:25:45;;;;;;;4.88;1.30;;;21.70;66.00;;;;;;5028373;28;20081;-55
2022/08/15 01:28:35;;;;;;;2.85;1.80;;;21.70;65.70;;;;;;5017994;28;20042;-53
2022/08/15 01:31:07;;;;;;;3.70;1.30;;;21.60;64.90;;;;;;5027002;28;20103;-54
2022/08/15 01:33:59;;;;;;;2.20;1.33;;;21.60;65.80;;;;;;5027474;28;20481;-54
2022/08/15 01:36:32;;;;;;;5.03;1.50;;;21.60;65.70;;;;;;5028235;28;20045;-55
2022/08/15 01:39:10;;;;;;;10.68;1.77;;;21.60;64.70;;;;;;5028354;28;20091;-55
2022/08/15 01:42:07;;;;;;;5.70;1.90;;;21.50;65.70;;;;;;5027482;28;20045;-53
2022/08/15 01:44:42;;;;;;;2.40;1.33;;;21.50;66.10;;;;;;5022056;28;20042;-54
2022/08/15 01:47:33;;;;;;;3.20;1.73;;;21.50;66.20;;;;;;5021201;28;20081;-56
2022/08/15 01:50:09;;;;;;;3.40;1.65;;;21.50;66.10;;;;;;5010674;28;20045;-52
2022/08/15 01:52:50;;;;;;;1.58;1.20;;;21.50;66.30;;;;;;5028315;28;20612;-55
2022/08/15 01:55:37;;;;;;;3.35;1.60;;;21.50;66.20;;;;;;5028197;28;20053;-56
2022/08/15 01:58:10;;;;;;;3.55;1.70;;;21.60;66.00;;;;;;5011087;28;20045;-57
2022/08/15 02:00:40;;;;;;;5.93;2.20;;;21.60;65.70;;;;;;5028369;28;20419;-53
2022/08/15 02:03:09;;;;;;;6.63;2.05;;;21.60;65.80;;;;;;5010251;28;20054;-53
2022/08/15 02:05:38;;;;;;;4.22;2.58;;;21.70;65.90;;;;;;5028317;28;20045;-55
2022/08/15 02:08:05;;;;;;;8.20;1.85;;;21.70;66.20;;;;;;5027843;28;20334;-53
2022/08/15 02:10:52;;;;;;;1.80;1.10;;;21.70;66.10;;;;;;5027953;28;20065;-55
2022/08/15 02:13:20;;;;;;;3.63;1.35;;;21.60;66.40;;;;;;5026316;28;20049;-53
2022/08/15 02:15:51;;;;;;;5.13;1.65;;;21.50;66.50;;;;;;5028191;28;20411;-52
2022/08/15 02:18:18;;;;;;;2.90;1.42;;;21.50;66.70;;;;;;5027443;28;20073;-50
2022/08/15 02:20:46;;;;;;;3.42;1.70;;;21.50;66.60;;;;;;5027984;28;20080;-52
2022/08/15 02:23:16;;;;;;;2.72;1.65;;;21.50;66.50;;;;;;5027582;28;20124;-51
2022/08/15 02:25:49;;;;;;;2.70;1.83;;;21.50;67.10;;;;;;5027992;28;20050;-55
2022/08/15 02:28:20;;;;;;;3.47;1.70;;;21.40;67.10;;;;;;5027692;28;20451;-53
2022/08/15 02:31:01;;;;;;;2.40;1.50;;;21.30;66.50;;;;;;5021555;28;20046;-55
2022/08/15 02:33:28;;;;;;;4.38;1.38;;;21.30;67.10;;;;;;5013426;28;20053;-52
2022/08/15 02:36:02;;;;;;;5.25;1.48;;;21.30;66.60;;;;;;5028088;28;20240;-53
2022/08/15 02:38:31;;;;;;;1.55;1.17;;;21.30;66.00;;;;;;5027410;28;20045;-54
2022/08/15 02:41:21;;;;;;;4.63;1.27;;;21.20;65.70;;;;;;5019130;28;20049;-55
2022/08/15 02:43:48;;;;;;;2.38;1.35;;;21.10;65.50;;;;;;5027283;28;20519;-53
2022/08/15 02:46:18;;;;;;;2.22;1.40;;;21.00;65.70;;;;;;5027813;28;20052;-55
2022/08/15 02:48:58;;;;;;;2.45;1.23;;;21.00;65.70;;;;;;5026492;28;20060;-54
2022/08/15 02:51:25;;;;;;;2.35;1.40;;;21.00;65.70;;;;;;5028024;28;20041;-52
2022/08/15 02:53:52;;;;;;;2.33;1.27;;;21.00;65.70;;;;;;5027596;28;20095;-59
2022/08/15 02:56:22;;;;;;;4.63;1.30;;;21.00;65.60;;;;;;5027973;28;20096;-53
2022/08/15 02:58:57;;;;;;;3.97;1.50;;;20.90;65.90;;;;;;5027465;28;20145;-49
2022/08/15 03:01:26;;;;;;;1.92;1.30;;;20.80;65.80;;;;;;5028104;28;20096;-57
2022/08/15 03:04:00;;;;;;;2.78;0.93;;;20.80;66.10;;;;;;5031284;28;20060;-54
2022/08/15 03:06:47;;;;;;;2.85;1.42;;;20.80;66.10;;;;;;5031169;28;20045;-53
2022/08/15 03:09:14;;;;;;;1.80;1.30;;;20.90;65.90;;;;;;5029600;28;20081;-53
2022/08/15 03:11:42;;;;;;;2.80;1.20;;;20.90;65.70;;;;;;5030873;28;20045;-56
2022/08/15 03:14:24;;;;;;;5.32;1.20;;;20.90;65.80;;;;;;5030981;28;20060;-55
2022/08/15 03:17:01;;;;;;;8.40;1.40;;;20.80;65.90;;;;;;5031135;28;20463;-54
2022/08/15 03:19:32;;;;;;;2.22;1.27;;;20.80;66.00;;;;;;5030599;28;20096;-52
2022/08/15 03:22:00;;;;;;;14.13;1.88;;;20.80;66.20;;;;;;5029734;28;20441;-55
2022/08/15 03:24:26;;;;;;;1.27;0.95;;;20.80;66.50;;;;;;5030719;28;20132;-53
2022/08/15 03:26:53;;;;;;;1.50;1.17;;;20.80;66.40;;;;;;5031018;28;20064;-56
2022/08/15 03:29:23;;;;;;;2.97;2.00;;;20.80;66.60;;;;;;5031182;28;20085;-53
2022/08/15 03:31:59;;;;;;;2.22;1.23;;;20.80;66.60;;;;;;5030419;28;20043;-53
2022/08/15 03:34:26;;;;;;;5.65;1.73;;;20.70;66.80;;;;;;5030773;28;20049;-53
2022/08/15 03:36:55;;;;;;;4.43;1.30;;;20.70;67.10;;;;;;5029305;28;20049;-55
2022/08/15 03:39:23;;;;;;;1.77;1.27;;;20.80;67.20;;;;;;5013578;28;20321;-54
2022/08/15 03:41:50;;;;;;;6.60;1.77;;;20.80;67.40;;;;;;5030388;28;20073;-54
2022/08/15 03:44:23;;;;;;;2.03;1.40;;;20.80;67.70;;;;;;5011043;28;20077;-54
2022/08/15 03:46:54;;;;;;;2.03;1.20;;;20.80;67.70;;;;;;5026620;28;20050;-50
2022/08/15 03:49:22;;;;;;;3.67;1.42;;;20.70;68.00;;;;;;5029213;28;20077;-52
2022/08/15 03:52:09;;;;;;;3.67;1.50;;;20.60;67.60;;;;;;5029869;28;20051;-54
2022/08/15 03:54:36;;;;;;;5.00;1.77;;;20.60;67.70;;;;;;5030444;28;20060;-55
2022/08/15 03:57:05;;;;;;;4.60;1.77;;;20.60;67.80;;;;;;5029963;28;20049;-54
2022/08/15 03:59:33;;;;;;;5.80;1.08;;;20.60;67.50;;;;;;5030122;28;20055;-55
2022/08/15 04:02:09;;;;;;;3.53;1.52;;;20.70;67.50;;;;;;5028227;28;20489;-53
2022/08/15 04:04:37;;;;;;;3.88;1.45;;;20.60;68.00;;;;;;5030095;28;20084;-53
2022/08/15 04:07:07;;;;;;;3.67;1.13;;;20.70;67.50;;;;;;5029765;28;20045;-52
2022/08/15 04:09:49;;;;;;;1.40;1.13;;;20.70;67.30;;;;;;5030222;28;20140;-55
2022/08/15 04:12:44;;;;;;;1.58;1.20;;;20.80;67.40;;;;;;5029502;28;20045;-53
2022/08/15 04:15:15;;;;;;;1.92;1.20;;;20.80;68.40;;;;;;5029433;28;20081;-53
2022/08/15 04:17:43;;;;;;;3.70;1.42;;;20.70;67.30;;;;;;5029831;28;20092;-55
2022/08/15 04:20:24;;;;;;;2.78;1.10;;;20.70;67.50;;;;;;5029894;28;20064;-55
2022/08/15 04:22:58;;;;;;;4.88;1.80;;;20.70;67.60;;;;;;5029719;28;20045;-55
2022/08/15 04:25:32;;;;;;;7.25;1.38;;;20.80;67.60;;;;;;5030007;28;20076;-50
2022/08/15 04:28:10;;;;;;;4.82;1.58;;;20.80;67.80;;;;;;5029431;28;20042;-53
2022/08/15 04:30:57;;;;;;;2.00;1.33;;;20.80;67.40;;;;;;5009840;28;20519;-51
2022/08/15 04:33:27;;;;;;;3.60;1.67;;;20.80;67.30;;;;;;5027251;28;20053;-53
2022/08/15 04:36:16;;;;;;;4.57;1.92;;;20.80;67.50;;;;;;5010516;28;20049;-54
2022/08/15 04:38:45;;;;;;;4.05;1.48;;;20.80;67.80;;;;;;5028118;28;20049;-55
2022/08/15 04:41:16;;;;;;;2.63;1.60;;;20.80;68.10;;;;;;5009895;28;20046;-55
2022/08/15 04:44:03;;;;;;;2.05;1.50;;;20.80;68.40;;;;;;5028563;28;20080;-55
2022/08/15 04:46:30;;;;;;;5.20;1.60;;;20.90;68.90;;;;;;5029665;28;20136;-53
2022/08/15 04:48:57;;;;;;;3.28;1.30;;;20.80;68.70;;;;;;5029191;28;20079;-52
2022/08/15 04:51:26;;;;;;;3.60;1.33;;;20.80;69.00;;;;;;5012108;28;20112;-55
2022/08/15 04:54:02;;;;;;;5.75;1.98;;;20.70;69.30;;;;;;5029031;28;20091;-53
2022/08/15 04:56:29;;;;;;;7.60;1.77;;;20.60;70.20;;;;;;5029398;28;20064;-53
2022/08/15 04:59:16;;;;;;;2.88;2.28;;;20.70;72.10;;;;;;5028478;28;20114;-54
2022/08/15 05:02:06;;;;;;;6.95;2.63;;;20.80;74.40;;;;;;5009738;28;20092;-53
2022/08/15 05:04:53;;;;;;;5.63;3.42;;;20.80;77.70;;;;;;5028499;28;20133;-55
2022/08/15 05:07:21;;;;;;;8.18;2.90;;;20.80;81.30;;;;;;5029360;28;20049;-52
2022/08/15 05:09:57;;;;;;;6.90;3.30;;;20.80;83.40;;;;;;5028660;28;20538;-54
2022/08/15 05:12:38;;;;;;;8.20;2.75;;;20.80;85.90;;;;;;5029045;28;20053;-52
2022/08/15 05:15:08;;;;;;;6.38;5.22;;;20.80;87.60;;;;;;5028611;28;20049;-56
2022/08/15 05:17:37;;;;;;;10.43;5.93;;;20.70;90.90;;;;;;5029262;28;20052;-55
2022/08/15 05:20:23;;;;;;;13.00;8.73;;;20.70;92.60;;;;;;5027239;28;20061;-54
2022/08/15 05:22:57;;;;;;;14.73;10.70;;;20.70;96.00;;;;;;5028937;28;20132;-55
2022/08/15 05:25:27;;;;;;;14.52;11.68;;;20.70;98.20;;;;;;5026989;28;20381;-55
2022/08/15 05:27:55;;;;;;;22.70;13.30;;;20.70;99.90;;;;;;5027889;28;20154;-56
2022/08/15 05:30:22;;;;;;;21.23;14.98;;;20.70;99.90;;;;;;5028374;28;20081;-55
2022/08/15 05:33:12;;;;;;;18.40;13.00;;;20.70;99.90;;;;;;5028772;28;20068;-53
2022/08/15 05:35:46;;;;;;;;;;;20.70;99.90;;;;;;5028650;28;20152;-55
2022/08/15 05:38:23;;;;;;;16.88;10.80;;;20.80;99.90;;;;;;5009125;28;19921;-55
2022/08/15 05:41:10;;;;;;;13.57;10.20;;;20.90;99.90;;;;;;5028183;28;20049;-56
2022/08/15 05:43:40;;;;;;;14.85;9.75;;;21.00;99.90;;;;;;5028697;28;20041;-52
2022/08/15 05:46:26;;;;;;;14.32;9.68;;;21.00;99.90;;;;;;5027615;28;20057;-52
2022/08/15 05:49:06;;;;;;;14.43;10.63;;;21.10;99.90;;;;;;5028543;28;20054;-53
2022/08/15 05:51:38;;;;;;;19.17;12.43;;;21.20;99.90;;;;;;5025280;28;20332;-53
2022/08/15 05:54:22;;;;;;;21.52;13.18;;;21.20;99.90;;;;;;5027415;28;20068;-56
2022/08/15 05:57:05;;;;;;;24.85;14.15;;;21.10;99.90;;;;;;5028023;28;20485;-55
2022/08/15 05:59:40;;;;;;;19.15;13.50;;;21.20;99.90;;;;;;5025600;28;20050;-54
2022/08/15 06:02:37;;;;;;;17.50;13.98;;;21.10;99.90;;;;;;5026545;28;20493;-54
2022/08/15 06:05:32;;;;;;;25.80;15.20;;;21.10;99.90;;;;;;5028028;28;20056;-54
2022/08/15 06:08:08;;;;;;;25.48;17.30;;;21.00;99.90;;;;;;5018829;28;20553;-56
2022/08/15 06:11:18;;;;;;;24.48;18.75;;;21.00;99.90;;;;;;5009697;28;20136;-55
2022/08/15 06:13:56;;;;;;;22.02;18.73;;;21.00;99.90;;;;;;5023510;28;20080;-55
2022/08/15 06:16:25;;;;;;;26.08;18.52;;;21.10;99.90;;;;;;5021098;28;20080;-52
2022/08/15 06:19:35;;;;;;;32.78;19.45;;;21.10;99.90;;;;;;5020998;28;20051;-51
2022/08/15 06:22:16;;;;;;;24.73;19.20;;;21.10;99.90;;;;;;5025282;28;20132;-54
2022/08/15 06:24:46;;;;;;;24.08;18.40;;;21.10;99.90;;;;;;5013394;28;20058;-52
2022/08/15 06:27:27;;;;;;;26.02;18.27;;;21.20;99.90;;;;;;5027400;28;20128;-56
2022/08/15 06:30:10;;;;;;;22.35;17.67;;;21.20;99.90;;;;;;5027825;28;20053;-55
2022/08/15 06:32:47;;;;;;;24.23;17.67;;;21.20;99.90;;;;;;5009870;28;20041;-56
2022/08/15 06:35:38;;;;;;;27.77;17.15;;;21.30;99.90;;;;;;5008337;28;20077;-51
2022/08/15 06:38:18;;;;;;;21.58;14.82;;;21.30;99.90;;;;;;5029569;28;20045;-54
2022/08/15 06:41:28;;;;;;;25.73;16.38;;;21.40;99.90;;;;;;5022219;28;20057;-55
2022/08/15 06:43:56;;;;;;;18.23;13.85;;;21.40;99.90;;;;;;5030017;28;20554;-54
2022/08/15 06:46:27;;;;;;;21.38;16.08;;;21.50;99.90;;;;;;5029576;28;20575;-54
2022/08/15 06:49:14;;;;;;;22.45;15.50;;;21.50;99.90;;;;;;5013150;28;20046;-50
2022/08/15 06:51:41;;;;;;;25.55;16.48;;;21.50;99.90;;;;;;4999583;28;20122;-53
2022/08/15 06:54:23;;;;;;;25.52;15.07;;;21.40;99.90;;;;;;5010260;28;20129;-51
2022/08/15 06:57:35;;;;;;;21.55;15.63;;;21.40;99.90;;;;;;5017178;28;20720;-53
2022/08/15 07:00:09;;;;;;;21.92;15.07;;;21.40;99.90;;;;;;5028708;28;20111;-51
2022/08/15 07:03:02;;;;;;;20.42;13.73;;;21.40;99.90;;;;;;5030409;28;20045;-53
2022/08/15 07:05:30;;;;;;;;;;;21.50;99.90;;;;;;5030896;28;20512;-50
2022/08/15 07:08:13;;;;;;;20.23;12.93;;;21.60;99.90;;;;;;5030514;28;19921;-49
2022/08/15 07:11:09;;;;;;;17.95;13.25;;;21.70;99.90;;;;;;5025379;28;20058;-49
2022/08/15 07:14:22;;;;;;;18.42;12.57;;;21.70;99.90;;;;;;5003537;28;20156;-52
2022/08/15 07:16:57;;;;;;;16.25;11.13;;;21.80;99.90;;;;;;5013475;28;20562;-56
2022/08/15 07:19:27;;;;;;;15.25;9.82;;;21.80;99.90;;;;;;5012670;28;20045;-53
2022/08/15 07:22:01;;;;;;;14.25;9.85;;;21.90;99.90;;;;;;5030499;28;20128;-54
2022/08/15 07:24:32;;;;;;;16.67;8.52;;;21.90;99.90;;;;;;5029021;28;20132;-53
2022/08/15 07:27:09;;;;;;;14.52;7.32;;;22.00;99.90;;;;;;5030328;28;20057;-54
2022/08/15 07:29:37;;;;;;;10.80;6.72;;;22.10;99.90;;;;;;5029983;28;20132;-53
2022/08/15 07:32:17;;;;;;;19.15;7.88;;;22.20;99.90;;;;;;5030395;28;20115;-56
2022/08/15 07:35:14;;;;;;;13.75;7.72;;;22.30;99.90;;;;;;5030442;28;20053;-53
2022/08/15 07:38:03;;;;;;;17.50;6.22;;;22.40;99.90;;;;;;5030198;28;20049;-53
2022/08/15 07:40:51;;;;;;;10.23;6.30;;;22.50;99.90;;;;;;5016129;28;20140;-53
2022/08/15 07:43:32;;;;;;;14.15;6.90;;;22.60;99.90;;;;;;5029775;28;20045;-54
2022/08/15 07:46:16;;;;;;;16.15;6.03;;;22.70;99.90;;;;;;4997029;28;20049;-55
2022/08/15 07:49:07;;;;;;;12.35;5.55;;;22.80;99.90;;;;;;5028367;28;20073;-56
2022/08/15 07:51:46;;;;;;;13.32;5.40;;;23.00;99.90;;;;;;5021481;28;20051;-57
2022/08/15 07:54:26;;;;;;;9.30;4.88;;;23.10;99.80;;;;;;5027058;28;20041;-55
2022/08/15 07:57:26;;;;;;;26.30;5.45;;;23.20;99.10;;;;;;5015365;28;20053;-55
2022/08/15 08:00:19;;;;;;;14.38;4.60;;;23.20;98.90;;;;;;5007974;28;20685;-56
2022/08/15 08:03:13;;;;;;;13.40;4.13;;;23.40;98.60;;;;;;5000210;28;20049;-54
2022/08/15 08:06:36;;;;;;;13.81;4.30;;;23.50;98.20;;;;;;4999819;28;10001165;-52
2022/08/15 08:09:29;;;;;;;7.20;4.20;;;23.60;97.90;;;;;;5004405;28;20822;-52
2022/08/15 08:12:25;;;;;;;13.45;4.20;;;23.50;97.40;;;;;;5021556;28;20058;-53
2022/08/15 08:15:28;;;;;;;9.50;3.97;;;23.40;97.40;;;;;;5004167;28;20042;-55
2022/08/15 08:18:41;;;;;;;7.30;3.92;;;23.50;97.30;;;;;;5005026;28;20485;-53
2022/08/15 08:21:12;;;;;;;13.73;3.72;;;23.50;96.70;;;;;;5017424;28;20050;-56
2022/08/15 08:23:49;;;;;;;12.53;4.60;;;23.60;96.60;;;;;;4999793;28;20046;-56
2022/08/15 08:26:38;;;;;;;9.50;3.85;;;23.70;96.30;;;;;;5002467;28;20116;-54
2022/08/15 08:29:17;;;;;;;8.20;4.13;;;23.90;95.60;;;;;;5005667;28;20050;-55
2022/08/15 08:32:03;;;;;;;13.73;4.47;;;23.90;95.60;;;;;;5004422;28;20100;-54
2022/08/15 08:35:19;;;;;;;7.68;3.75;;;24.00;95.50;;;;;;5005822;28;20741;-53
2022/08/15 08:38:01;;;;;;;10.73;4.03;;;24.00;95.60;;;;;;5000894;28;20281;-55
2022/08/15 08:41:34;;;;;;;8.80;3.40;;;24.10;95.50;;;;;;5005497;28;20076;-54
2022/08/15 08:44:24;;;;;;;8.82;4.60;;;24.20;95.50;;;;;;5006067;28;20140;-54
2022/08/15 08:47:01;;;;;;;9.82;4.05;;;24.30;95.70;;;;;;5021143;28;20485;-54
2022/08/15 08:50:10;;;;;;;9.90;4.50;;;24.40;95.50;;;;;;5000861;28;20081;-60
2022/08/15 08:53:01;;;;;;;12.25;3.80;;;24.50;95.60;;;;;;5001870;28;20470;-53
2022/08/15 08:55:31;;;;;;;11.10;4.05;;;24.70;94.80;;;;;;5009026;28;20053;-54
2022/08/15 08:58:13;;;;;;;13.20;4.47;;;24.70;94.70;;;;;;5006753;28;20057;-56
2022/08/15 09:01:03;;;;;;;8.10;3.88;;;24.80;94.30;;;;;;5023666;28;20060;-54
2022/08/15 09:03:34;;;;;;;8.52;3.00;;;25.00;94.20;;;;;;5025373;28;20076;-55
2022/08/15 09:06:03;;;;;;;7.85;3.83;;;25.20;93.40;;;;;;5023175;28;20230;-55
2022/08/15 09:08:40;;;;;;;12.32;4.20;;;25.20;93.00;;;;;;5025516;28;20053;-56
2022/08/15 09:11:24;;;;;;;9.02;3.15;;;25.30;92.90;;;;;;5008293;28;20048;-54
2022/08/15 09:13:51;;;;;;;13.90;3.80;;;25.50;92.40;;;;;;5023871;28;20172;-56
2022/08/15 09:16:33;;;;;;;12.68;3.97;;;25.70;92.60;;;;;;5023316;28;20049;-54
2022/08/15 09:19:06;;;;;;;9.60;3.75;;;25.80;91.80;;;;;;5023456;28;20080;-53
2022/08/15 09:21:38;;;;;;;6.43;3.20;;;25.90;91.60;;;;;;5007692;28;20135;-54
2022/08/15 09:24:09;;;;;;;10.07;3.88;;;25.90;91.30;;;;;;5007843;28;20049;-54
2022/08/15 09:27:04;;;;;;;10.60;3.55;;;25.90;90.80;;;;;;5024862;28;20559;-55
2022/08/15 09:29:36;;;;;;;10.55;4.20;;;25.80;88.30;;;;;;5025237;28;20053;-55
2022/08/15 09:32:27;;;;;;;10.52;3.22;;;25.70;89.30;;;;;;5009841;28;20057;-55
2022/08/15 09:35:19;;;;;;;8.65;3.67;;;25.60;88.80;;;;;;5020039;28;20056;-56
2022/08/15 09:38:17;;;;;;;9.82;3.55;;;25.50;86.70;;;;;;5015731;28;20045;-53
2022/08/15 09:41:29;;;;;;;5.83;3.20;;;25.50;89.20;;;;;;5024439;28;20467;-54
2022/08/15 09:44:09;;;;;;;7.57;3.10;;;25.70;87.20;;;;;;5024324;28;20072;-52
2022/08/15 09:47:19;;;;;;;7.07;3.97;;;25.80;85.60;;;;;;4991409;28;20519;-54
2022/08/15 09:50:05;;;;;;;6.03;3.17;;;25.60;87.40;;;;;;5021251;28;20049;-56
2022/08/15 09:53:18;;;;;;;9.60;3.05;;;25.50;87.10;;;;;;5023014;28;20522;-55
2022/08/15 09:55:46;;;;;;;;;;;25.50;87.50;;;;;;5011496;28;20516;-54
2022/08/15 09:58:21;;;;;;;;;;;25.50;87.30;;;;;;5014577;28;20051;-54
2022/08/15 10:01:00;;;;;;;48.95;9.52;;;25.60;88.00;;;;;;5024578;28;19925;-57
2022/08/15 10:03:50;;;;;;;32.95;6.45;;;25.70;88.30;;;;;;5024393;28;20057;-57
2022/08/15 10:06:25;;;;;;;9.15;3.92;;;25.70;88.80;;;;;;5024080;28;20152;-55
2022/08/15 10:09:31;;;;;;;8.25;3.72;;;25.80;88.20;;;;;;5008606;28;20046;-54
2022/08/15 10:12:04;;;;;;;10.00;4.18;;;25.80;88.60;;;;;;5028991;28;20057;-53
2022/08/15 10:14:42;;;;;;;;;;;25.90;88.70;;;;;;5027360;28;20118;-54
2022/08/15 10:17:22;;;;;;;12.98;3.10;;;26.00;88.00;;;;;;5031144;28;20055;-54
2022/08/15 10:19:55;;;;;;;;;;;26.00;84.70;;;;;;5030836;28;20053;-54
2022/08/15 10:22:57;;;;;;;22.83;5.22;;;26.00;86.70;;;;;;5012138;28;20432;-55
2022/08/15 10:25:35;;;;;;;15.80;3.75;;;26.10;86.50;;;;;;5030665;28;20140;-52
2022/08/15 10:28:12;;;;;;;7.43;3.10;;;26.40;86.80;;;;;;5031198;28;20137;-57
2022/08/15 10:31:02;;;;;;;6.35;3.00;;;26.80;84.90;;;;;;5030513;28;20045;-56
2022/08/15 10:33:33;;;;;;;11.43;3.55;;;27.10;81.30;;;;;;5030594;28;20551;-56
2022/08/15 10:36:14;;;;;;;6.13;2.85;;;27.40;75.70;;;;;;5030767;28;20079;-56
2022/08/15 10:39:11;;;;;;;10.00;2.70;;;27.60;72.20;;;;;;5029589;28;20148;-56
2022/08/15 10:41:53;;;;;;;7.28;3.25;;;27.50;75.60;;;;;;5028439;28;20463;-56
2022/08/15 10:44:42;;;;;;;6.93;3.28;;;27.40;71.50;;;;;;5030491;28;20099;-54
2022/08/15 10:47:31;;;;;;;7.82;3.00;;;27.50;73.80;;;;;;5015668;28;20050;-54
2022/08/15 10:50:02;;;;;;;6.05;2.47;;;27.70;72.50;;;;;;5018942;28;20044;-55
2022/08/15 10:53:23;;;;;;;6.57;3.13;;;27.80;70.30;;;;;;5029731;28;20095;-51
2022/08/15 10:55:50;;;;;;;9.27;2.85;;;27.90;67.90;;;;;;4993036;28;20123;-57
2022/08/15 10:58:30;;;;;;;5.07;3.15;;;27.90;70.80;;;;;;5010932;28;20069;-56
2022/08/15 11:01:07;;;;;;;7.05;2.80;;;28.20;68.60;;;;;;5028642;28;20053;-54
2022/08/15 11:03:49;;;;;;;8.30;2.20;;;28.40;68.30;;;;;;5029421;28;20127;-55
2022/08/15 11:06:45;;;;;;;10.70;2.78;;;28.60;65.90;;;;;;5030209;28;20091;-55
2022/08/15 11:09:17;;;;;;;9.45;3.15;;;28.70;66.10;;;;;;5010519;28;20507;-56
2022/08/15 11:11:54;;;;;;;7.60;3.05;;;28.70;65.70;;;;;;5028138;28;20071;-55
2022/08/15 11:14:28;;;;;;;7.25;2.55;;;28.60;65.40;;;;;;5009229;28;20080;-57
2022/08/15 11:16:58;;;;;;;5.28;3.17;;;28.50;67.10;;;;;;5010813;28;20061;-56
2022/08/15 11:19:31;;;;;;;5.72;2.95;;;28.50;67.70;;;;;;5028745;28;20573;-55
2022/08/15 11:22:35;;;;;;;9.32;3.25;;;28.10;67.60;;;;;;5027677;28;20404;-54
2022/08/15 11:25:10;;;;;;;3.72;2.75;;;28.20;68.30;;;;;;5026947;28;20049;-55
2022/08/15 11:27:37;;;;;;;7.13;2.70;;;28.20;67.80;;;;;;5026674;28;20574;-56
2022/08/15 11:30:08;;;;;;;6.82;2.97;;;28.20;68.30;;;;;;5027356;28;20092;-56
2022/08/15 11:32:48;;;;;;;6.35;3.28;;;28.40;68.70;;;;;;5026861;28;20054;-55
2022/08/15 11:35:29;;;;;;;4.55;2.45;;;28.30;67.10;;;;;;5027258;28;20049;-56
2022/08/15 11:37:58;;;;;;;7.32;2.83;;;28.30;65.00;;;;;;5024019;28;20259;-56
2022/08/15 11:40:35;;;;;;;6.70;2.65;;;28.40;66.20;;;;;;5026373;28;20200;-56
2022/08/15 11:43:04;;;;;;;9.73;2.70;;;28.50;64.10;;;;;;5009594;28;20071;-56
2022/08/15 11:45:40;;;;;;;5.13;2.67;;;28.50;65.70;;;;;;5026787;28;20049;-55
2022/08/15 11:48:29;;;;;;;8.57;2.72;;;28.60;66.40;;;;;;5026706;28;20527;-55
2022/08/15 11:51:09;;;;;;;8.93;3.25;;;28.60;65.10;;;;;;5026564;28;20077;-55
2022/08/15 11:53:58;;;;;;;13.70;3.17;;;28.80;66.00;;;;;;5025701;28;20050;-53
2022/08/15 11:56:47;;;;;;;8.90;4.10;;;28.80;64.40;;;;;;5026560;28;20054;-54
2022/08/15 11:59:29;;;;;;;5.32;2.70;;;28.90;64.50;;;;;;5026515;28;20045;-56
2022/08/15 12:02:20;;;;;;;8.50;2.58;;;29.20;61.70;;;;;;5025764;28;20048;-56
2022/08/15 12:05:12;;;;;;;7.10;2.58;;;29.30;61.70;;;;;;5018292;28;20045;-54
2022/08/15 12:08:01;;;;;;;6.25;2.50;;;29.20;62.40;;;;;;5025958;28;20053;-53
2022/08/15 12:10:50;;;;;;;6.35;2.50;;;29.30;62.50;;;;;;5025931;28;20053;-58
2022/08/15 12:13:23;;;;;;;6.35;2.15;;;29.40;61.50;;;;;;5025452;28;20069;-54
2022/08/15 12:16:01;;;;;;;3.67;2.35;;;29.40;62.50;;;;;;5010339;28;20049;-56
2022/08/15 12:18:49;;;;;;;4.82;2.78;;;29.50;63.10;;;;;;5026181;28;20061;-55
2022/08/15 12:21:20;;;;;;;5.25;3.13;;;29.40;63.10;;;;;;5025971;28;20053;-55
2022/08/15 12:23:56;;;;;;;5.90;2.40;;;29.30;63.60;;;;;;5023708;28;20056;-55
2022/08/15 12:26:28;;;;;;;6.57;2.83;;;29.40;63.50;;;;;;5026082;28;20053;-55
2022/08/15 12:29:15;;;;;;;5.07;2.78;;;29.40;64.30;;;;;;5026211;28;20052;-55
2022/08/15 12:31:45;;;;;;;7.80;2.58;;;29.30;62.20;;;;;;5024928;28;20167;-54
2022/08/15 12:34:15;;;;;;;4.72;2.38;;;29.30;62.60;;;;;;5023384;28;20041;-54
2022/08/15 12:37:00;;;;;;;4.53;2.42;;;29.20;62.50;;;;;;5026212;28;20065;-53
2022/08/15 12:39:38;;;;;;;8.60;2.70;;;29.00;63.40;;;;;;5025164;28;20324;-56
2022/08/15 12:42:07;;;;;;;7.20;2.42;;;29.00;63.60;;;;;;5024972;28;20153;-53
2022/08/15 12:44:56;;;;;;;4.97;2.40;;;29.00;63.40;;;;;;5024339;28;20496;-56
2022/08/15 12:47:23;;;;;;;6.93;2.60;;;29.00;63.10;;;;;;5026728;28;20092;-56
2022/08/15 12:50:02;;;;;;;5.40;2.85;;;29.00;62.80;;;;;;5025185;28;20483;-56
2022/08/15 12:52:32;;;;;;;5.95;2.67;;;28.90;62.80;;;;;;5026362;28;20056;-57
2022/08/15 12:54:59;;;;;;;10.48;2.38;;;28.90;62.60;;;;;;5025679;28;20057;-55
2022/08/15 12:57:27;;;;;;;4.47;2.63;;;28.90;62.60;;;;;;5009011;28;20563;-53
2022/08/15 13:00:14;;;;;;;11.00;2.65;;;29.10;62.10;;;;;;5024004;28;20049;-55
2022/08/15 13:03:19;;;;;;;6.20;3.17;;;29.00;61.50;;;;;;5006179;28;20057;-53
2022/08/15 13:06:14;;;;;;;10.15;3.00;;;29.00;60.80;;;;;;5024614;28;20049;-56
2022/08/15 13:09:01;;;;;;;5.90;2.33;;;28.90;60.80;;;;;;5024003;28;20562;-57
2022/08/15 13:11:29;;;;;;;6.53;3.35;;;29.10;61.40;;;;;;5025691;28;20089;-57
2022/08/15 13:13:57;;;;;;;8.35;2.88;;;29.20;60.50;;;;;;5025181;28;20153;-59
2022/08/15 13:16:24;;;;;;;4.93;3.00;;;29.10;60.60;;;;;;5025712;28;20535;-58
2022/08/15 13:19:21;;;;;;;7.93;3.28;;;28.70;60.40;;;;;;5024683;28;20057;-54
2022/08/15 13:24:57;;;;;;;6.85;3.72;;;28.50;60.30;;;;;;5025221;28;20075;-57
2022/08/15 13:27:27;;;;;;;8.40;3.47;;;28.40;60.50;;;;;;5024793;28;20103;-57
2022/08/15 13:29:55;;;;;;;10.50;3.60;;;28.50;59.90;;;;;;5023509;28;20045;-55
2022/08/15 13:32:23;;;;;;;11.50;4.55;;;28.30;60.80;;;;;;5024215;28;20113;-57
2022/08/15 13:34:51;;;;;;;5.45;4.03;;;28.30;62.80;;;;;;5024800;28;20136;-54
2022/08/15 13:37:21;;;;;;;8.80;5.07;;;28.00;66.10;;;;;;5024514;28;20108;-58
2022/08/15 13:40:09;;;;;;;7.60;3.45;;;27.70;70.00;;;;;;4664749;28;10000839;-56
2022/08/15 13:42:46;;;;;;;8.63;3.90;;;27.30;69.30;;;;;;5025133;28;20057;-56
2022/08/15 13:45:16;;;;;;;9.02;3.10;;;27.00;73.90;;;;;;5024703;28;20056;-57
2022/08/15 13:48:04;;;;;;;9.10;3.28;;;26.80;72.70;;;;;;5024577;28;20049;-54